createdAt,value
2023-04-10T00:01:24.487Z,10.93
2023-04-10T00:04:10.584Z,11.23
2023-04-10T00:06:56.414Z,10.80
2023-04-10T00:09:41.782Z,10.27
2023-04-10T00:12:27.371Z,10.90
2023-04-10T00:15:12.520Z,10.98
2023-04-10T00:17:57.979Z,10.98
2023-04-10T00:20:43.712Z,11.18
2023-04-10T00:23:31.787Z,11.13
2023-04-10T00:26:17.127Z,9.73
2023-04-10T00:29:03.372Z,10.77
2023-04-10T00:31:49.035Z,9.70
2023-04-10T00:34:34.518Z,10.77
2023-04-10T00:37:19.767Z,10.88
2023-04-10T00:40:06.368Z,9.40
2023-04-10T00:42:51.516Z,9.98
2023-04-10T00:45:37.077Z,9.82
2023-04-10T00:48:22.744Z,10.85
2023-04-10T00:51:08.187Z,10.30
2023-04-10T00:53:56.760Z,9.98
2023-04-10T00:56:43.094Z,9.88
2023-04-10T00:59:28.877Z,10.95
2023-04-10T01:02:14.141Z,10.57
2023-04-10T01:04:59.519Z,10.77
2023-04-10T01:08:10.247Z,11.38
2023-04-10T01:11:24.451Z,10.63
2023-04-10T01:14:33.285Z,10.50
2023-04-10T01:17:29.567Z,11.90
2023-04-10T01:20:21.424Z,11.05
2023-04-10T01:23:32.785Z,10.93
2023-04-10T01:26:41.804Z,10.20
2023-04-10T01:29:29.400Z,11.30
2023-04-10T01:32:20.552Z,11.82
2023-04-10T01:35:08.340Z,11.48
2023-04-10T01:37:55.406Z,10.98
2023-04-10T01:40:48.643Z,10.25
2023-04-10T01:43:34.241Z,11.60
2023-04-10T01:46:21.597Z,9.63
2023-04-10T01:49:08.591Z,10.05
2023-04-10T01:51:58.264Z,11.25
2023-04-10T01:54:48.357Z,11.70
2023-04-10T01:57:35.952Z,11.40
2023-04-10T02:00:21.378Z,10.98
2023-04-10T02:03:06.991Z,10.50
2023-04-10T02:05:57.194Z,9.55
2023-04-10T02:08:57.242Z,10.57
2023-04-10T02:11:57.758Z,12.02
2023-04-10T02:14:46.588Z,10.68
2023-04-10T02:17:33.818Z,11.52
2023-04-10T02:20:19.387Z,9.88
2023-04-10T02:23:05.372Z,11.45
2023-04-10T02:25:50.870Z,10.38
2023-04-10T02:28:39.748Z,11.10
2023-04-10T02:31:24.777Z,11.93
2023-04-10T02:34:10.569Z,11.60
2023-04-10T02:36:56.278Z,10.80
2023-04-10T02:39:41.724Z,10.57
2023-04-10T02:42:27.239Z,10.35
2023-04-10T02:45:12.666Z,10.57
2023-04-10T02:47:58.260Z,11.48
2023-04-10T02:50:46.353Z,11.38
2023-04-10T02:53:33.397Z,11.77
2023-04-10T02:56:18.941Z,11.43
2023-04-10T02:59:04.297Z,12.63
2023-04-10T03:01:52.233Z,9.80
2023-04-10T03:04:37.544Z,11.63
2023-04-10T03:07:22.908Z,10.60
2023-04-10T03:10:08.927Z,11.50
2023-04-10T03:12:54.227Z,11.60
2023-04-10T03:15:39.629Z,11.95
2023-04-10T03:18:25.026Z,10.70
2023-04-10T03:21:10.614Z,11.35
2023-04-10T03:23:56.331Z,10.55
2023-04-10T03:26:41.651Z,11.25
2023-04-10T03:29:26.569Z,10.95
2023-04-10T03:32:11.885Z,9.95
2023-04-10T03:34:58.674Z,9.73
2023-04-10T03:37:43.916Z,11.35
2023-04-10T03:40:29.430Z,10.88
2023-04-10T03:43:15.749Z,10.98
2023-04-10T03:46:01.763Z,12.18
2023-04-10T03:48:47.087Z,11.18
2023-04-10T03:51:32.643Z,10.20
2023-04-10T03:54:17.917Z,11.88
2023-04-10T03:57:03.466Z,11.20
2023-04-10T03:59:48.753Z,11.63
2023-04-10T04:02:34.402Z,11.25
2023-04-10T04:05:20.020Z,11.38
2023-04-10T04:08:06.777Z,11.60
2023-04-10T04:10:52.141Z,11.90
2023-04-10T04:13:37.380Z,12.55
2023-04-10T04:16:22.784Z,11.82
2023-04-10T04:19:08.081Z,11.65
2023-04-10T04:21:53.364Z,11.63
2023-04-10T04:24:38.669Z,12.75
2023-04-10T04:27:24.173Z,10.80
2023-04-10T04:30:10.654Z,10.98
2023-04-10T04:32:56.087Z,11.48
2023-04-10T04:35:41.493Z,10.93
2023-04-10T04:38:26.770Z,11.32
2023-04-10T04:41:12.311Z,11.82
2023-04-10T04:44:01.764Z,11.38
2023-04-10T04:46:47.148Z,10.88
2023-04-10T04:49:32.807Z,12.35
2023-04-10T04:52:18.254Z,11.02
2023-04-10T04:55:03.706Z,11.68
2023-04-10T04:57:49.147Z,10.50
2023-04-10T05:00:34.492Z,11.05
2023-04-10T05:03:20.394Z,11.05
2023-04-10T05:06:06.682Z,13.38
2023-04-10T05:08:52.996Z,11.77
2023-04-10T05:11:38.723Z,11.13
2023-04-10T05:14:24.007Z,11.15
2023-04-10T05:17:09.312Z,11.43
2023-04-10T05:19:54.574Z,11.23
2023-04-10T05:22:40.062Z,11.20
2023-04-10T05:25:25.855Z,11.25
2023-04-10T05:28:11.043Z,11.30
2023-04-10T05:30:56.587Z,10.77
2023-04-10T05:33:41.837Z,11.82
2023-04-10T05:36:27.600Z,11.27
2023-04-10T05:39:13.449Z,11.90
2023-04-10T05:41:58.936Z,12.80
2023-04-10T05:44:45.515Z,11.52
2023-04-10T05:47:30.726Z,12.20
2023-04-10T05:50:16.139Z,12.10
2023-04-10T05:53:01.358Z,11.90
2023-04-10T05:55:51.327Z,12.80
2023-04-10T05:58:36.946Z,12.77
2023-04-10T06:01:22.312Z,12.60
2023-04-10T06:04:08.195Z,12.30
2023-04-10T06:06:53.928Z,13.50
2023-04-10T06:09:38.937Z,12.57
2023-04-10T06:12:24.242Z,12.57
2023-04-10T06:15:09.987Z,13.32
2023-04-10T06:17:55.539Z,13.40
2023-04-10T06:20:41.107Z,12.45
2023-04-10T06:23:26.621Z,14.93
2023-04-10T06:26:12.750Z,14.43
2023-04-10T06:28:57.923Z,14.27
2023-04-10T06:31:44.186Z,14.95
2023-04-10T06:34:29.744Z,13.48
2023-04-10T06:37:15.367Z,14.20
2023-04-10T06:40:06.580Z,13.07
2023-04-10T06:42:51.928Z,12.43
2023-04-10T06:45:37.303Z,14.38
2023-04-10T06:48:22.780Z,13.73
2023-04-10T06:51:08.182Z,14.45
2023-04-10T06:53:53.529Z,12.85
2023-04-10T06:56:39.587Z,13.27
2023-04-10T06:59:25.116Z,12.88
2023-04-10T07:02:11.471Z,12.93
2023-04-10T07:04:57.130Z,13.30
2023-04-10T07:07:42.688Z,14.32
2023-04-10T07:10:27.784Z,14.10
2023-04-10T07:13:13.185Z,14.18
2023-04-10T07:15:58.869Z,13.63
2023-04-10T07:18:45.147Z,13.25
2023-04-10T07:21:33.010Z,15.00
2023-04-10T07:24:18.585Z,14.45
2023-04-10T07:27:04.081Z,15.50
2023-04-10T07:29:49.436Z,14.38
2023-04-10T07:32:35.302Z,14.65
2023-04-10T07:35:20.710Z,15.48
2023-04-10T07:38:05.816Z,13.95
2023-04-10T07:40:57.230Z,13.13
2023-04-10T07:43:42.537Z,14.82
2023-04-10T07:46:27.892Z,13.48
2023-04-10T07:49:13.423Z,12.50
2023-04-10T07:51:58.704Z,14.65
2023-04-10T07:54:44.312Z,13.35
2023-04-10T07:57:29.852Z,12.20
2023-04-10T08:00:16.264Z,12.52
2023-04-10T08:03:01.854Z,11.80
2023-04-10T08:05:47.353Z,9.77
2023-04-10T08:08:32.900Z,10.98
2023-04-10T08:11:35.944Z,11.70
2023-04-10T08:14:22.510Z,10.93
2023-04-10T08:17:14.392Z,11.55
2023-04-10T08:20:00.146Z,11.70
2023-04-10T08:22:45.479Z,8.48
2023-04-10T08:25:31.429Z,8.45
2023-04-10T08:28:16.914Z,8.63
2023-04-10T08:31:02.395Z,9.02
2023-04-10T08:33:48.496Z,9.88
2023-04-10T08:36:34.614Z,7.70
2023-04-10T08:39:20.135Z,9.30
2023-04-10T08:42:07.313Z,8.52
2023-04-10T08:44:54.484Z,8.07
2023-04-10T08:47:43.337Z,8.75
2023-04-10T08:50:34.192Z,8.40
2023-04-10T08:53:24.285Z,8.45
2023-04-10T08:56:14.109Z,8.30
2023-04-10T08:58:59.518Z,8.95
2023-04-10T09:01:46.848Z,8.90
2023-04-10T09:04:32.310Z,8.65
2023-04-10T09:07:18.083Z,8.65
2023-04-10T09:10:03.724Z,9.02
2023-04-10T09:12:49.755Z,8.57
2023-04-10T09:15:55.752Z,9.15
2023-04-10T09:18:47.655Z,8.98
2023-04-10T09:21:33.057Z,8.53
2023-04-10T09:24:18.580Z,9.57
2023-04-10T09:27:04.489Z,9.18
2023-04-10T09:29:49.777Z,7.68
2023-04-10T09:32:36.828Z,8.68
2023-04-10T09:35:22.424Z,8.52
2023-04-10T09:38:16.712Z,8.05
2023-04-10T09:41:08.930Z,8.13
2023-04-10T09:44:11.786Z,8.35
2023-04-10T09:46:58.283Z,8.70
2023-04-10T09:49:54.597Z,7.95
2023-04-10T09:52:39.852Z,8.45
2023-04-10T09:55:25.218Z,7.78
2023-04-10T09:58:11.522Z,8.00
2023-04-10T10:00:57.165Z,7.53
2023-04-10T10:03:43.760Z,8.18
2023-04-10T10:06:32.025Z,8.20
2023-04-10T10:09:17.504Z,7.28
2023-04-10T10:12:04.312Z,7.28
2023-04-10T10:14:57.538Z,8.02
2023-04-10T10:17:51.501Z,7.53
2023-04-10T10:20:39.348Z,7.65
2023-04-10T10:23:26.084Z,7.40
2023-04-10T10:26:12.135Z,8.18
2023-04-10T10:28:59.080Z,8.00
2023-04-10T10:31:46.119Z,7.32
2023-04-10T10:34:32.053Z,7.85
2023-04-10T10:37:17.363Z,7.10
2023-04-10T10:40:32.468Z,7.63
2023-04-10T10:43:39.251Z,7.38
2023-04-10T10:46:48.052Z,7.97
2023-04-10T10:49:58.842Z,7.10
2023-04-10T10:52:46.837Z,7.03
2023-04-10T10:55:35.165Z,7.35
2023-04-10T10:58:58.767Z,6.68
2023-04-10T11:02:23.272Z,10.50
2023-04-10T11:05:08.972Z,6.30
2023-04-10T11:08:00.538Z,7.28
2023-04-10T11:11:05.901Z,6.55
2023-04-10T11:13:56.238Z,6.40
2023-04-10T11:16:44.283Z,6.03
2023-04-10T11:19:29.767Z,5.80
2023-04-10T11:22:15.704Z,5.68
2023-04-10T11:25:02.577Z,6.18
2023-04-10T11:27:52.803Z,6.28
2023-04-10T11:30:38.282Z,5.75
2023-04-10T11:33:23.657Z,5.45
2023-04-10T11:36:09.194Z,4.90
2023-04-10T11:39:06.012Z,4.40
2023-04-10T11:41:53.176Z,5.28
2023-04-10T11:44:42.733Z,4.80
2023-04-10T11:47:28.184Z,5.30
2023-04-10T11:50:14.570Z,5.18
2023-04-10T11:52:59.671Z,4.82
2023-04-10T11:55:45.239Z,4.93
2023-04-10T11:58:31.998Z,4.60
2023-04-10T12:01:21.773Z,4.57
2023-04-10T12:04:21.425Z,4.68
2023-04-10T12:07:06.869Z,4.28
2023-04-10T12:09:58.660Z,4.25
2023-04-10T12:12:43.818Z,4.00
2023-04-10T12:15:30.177Z,3.90
2023-04-10T12:18:15.671Z,4.85
2023-04-10T12:21:01.699Z,4.35
2023-04-10T12:23:46.989Z,5.13
2023-04-10T12:26:32.331Z,4.25
2023-04-10T12:29:17.644Z,4.60
2023-04-10T12:32:09.897Z,4.30
2023-04-10T12:34:57.778Z,4.68
2023-04-10T12:37:52.264Z,4.45
2023-04-10T12:40:38.541Z,4.35
2023-04-10T12:43:40.847Z,4.63
2023-04-10T12:46:29.814Z,4.43
2023-04-10T12:49:17.009Z,4.75
2023-04-10T12:52:02.387Z,4.95
2023-04-10T12:54:47.615Z,4.45
2023-04-10T12:57:33.021Z,4.25
2023-04-10T13:00:19.675Z,4.88
2023-04-10T13:03:04.820Z,4.47
2023-04-10T13:05:50.380Z,4.70
2023-04-10T13:08:35.886Z,5.10
2023-04-10T13:11:22.661Z,4.32
2023-04-10T13:14:09.105Z,4.50
2023-04-10T13:16:54.256Z,3.97
2023-04-10T13:19:39.778Z,3.75
2023-04-10T13:22:25.245Z,4.00
2023-04-10T13:25:10.573Z,4.68
2023-04-10T13:27:56.060Z,4.35
2023-04-10T13:30:42.369Z,4.30
2023-04-10T13:33:28.045Z,4.45
2023-04-10T13:36:14.261Z,4.03
2023-04-10T13:38:59.970Z,4.30
2023-04-10T13:41:45.464Z,3.72
2023-04-10T13:44:30.790Z,4.18
2023-04-10T13:47:16.407Z,4.07
2023-04-10T13:50:01.484Z,3.90
2023-04-10T13:52:46.973Z,3.97
2023-04-10T13:55:32.326Z,3.90
2023-04-10T13:58:17.896Z,4.32
2023-04-10T14:01:03.613Z,3.85
2023-04-10T14:03:48.958Z,3.92
2023-04-10T14:06:34.630Z,3.30
2023-04-10T14:09:19.809Z,3.53
2023-04-10T14:12:05.303Z,3.78
2023-04-10T14:14:50.811Z,3.40
2023-04-10T14:17:36.355Z,3.80
2023-04-10T14:20:22.099Z,4.05
2023-04-10T14:23:07.840Z,3.58
2023-04-10T14:25:52.936Z,4.03
2023-04-10T14:28:38.286Z,3.67
2023-04-10T14:31:23.656Z,3.20
2023-04-10T14:34:08.868Z,3.30
2023-04-10T14:36:55.924Z,3.28
2023-04-10T14:39:41.536Z,3.38
2023-04-10T14:42:27.424Z,2.95
2023-04-10T14:45:12.448Z,3.13
2023-04-10T14:47:58.043Z,3.30
2023-04-10T14:50:43.358Z,3.40
2023-04-10T14:53:28.792Z,3.38
2023-04-10T14:56:15.473Z,3.53
2023-04-10T14:59:00.583Z,3.17
2023-04-10T15:01:46.275Z,3.22
2023-04-10T15:04:31.700Z,3.72
2023-04-10T15:07:17.066Z,3.30
2023-04-10T15:10:02.482Z,3.05
2023-04-10T15:12:47.871Z,3.75
2023-04-10T15:15:33.265Z,3.80
2023-04-10T15:18:18.752Z,3.70
2023-04-10T15:21:04.255Z,3.40
2023-04-10T15:23:49.373Z,3.83
2023-04-10T15:26:34.958Z,3.80
2023-04-10T15:29:20.399Z,3.63
2023-04-10T15:32:05.972Z,3.30
2023-04-10T15:34:51.480Z,3.55
2023-04-10T15:37:36.923Z,3.30
2023-04-10T15:40:22.320Z,3.85
2023-04-10T15:43:07.594Z,3.72
2023-04-10T15:45:53.086Z,3.42
2023-04-10T15:48:38.447Z,3.05
2023-04-10T15:51:23.897Z,3.70
2023-04-10T15:54:10.906Z,2.97
2023-04-10T15:56:57.411Z,3.05
2023-04-10T15:59:42.822Z,3.67
2023-04-10T16:02:28.563Z,3.30
2023-04-10T16:05:14.328Z,3.40
2023-04-10T16:07:59.614Z,4.07
2023-04-10T16:10:45.484Z,3.55
2023-04-10T16:13:30.387Z,3.50
2023-04-10T16:16:16.698Z,3.30
2023-04-10T16:19:02.067Z,3.45
2023-04-10T16:21:47.396Z,4.22
2023-04-10T16:24:32.913Z,3.92
2023-04-10T16:27:18.225Z,3.40
2023-04-10T16:30:06.381Z,3.10
2023-04-10T16:32:51.939Z,4.50
2023-04-10T16:35:37.191Z,3.70
2023-04-10T16:38:22.539Z,3.15
2023-04-10T16:41:07.811Z,3.67
2023-04-10T16:43:53.315Z,3.33
2023-04-10T16:46:38.881Z,3.90
2023-04-10T16:49:24.564Z,3.80
2023-04-10T16:52:09.743Z,3.97
2023-04-10T16:54:55.204Z,4.10
2023-04-10T16:57:40.623Z,3.38
2023-04-10T17:00:26.512Z,4.07
2023-04-10T17:03:11.673Z,3.78
2023-04-10T17:05:57.157Z,3.45
2023-04-10T17:08:42.654Z,3.60
2023-04-10T17:11:28.019Z,4.10
2023-04-10T17:14:15.582Z,3.80
2023-04-10T17:17:01.028Z,3.85
2023-04-10T17:19:46.269Z,3.38
2023-04-10T17:22:31.625Z,3.97
2023-04-10T17:25:17.094Z,4.00
2023-04-10T17:28:02.377Z,4.13
2023-04-10T17:30:48.402Z,4.38
2023-04-10T17:33:33.563Z,7.15
2023-04-10T17:36:18.769Z,4.28
2023-04-10T17:39:04.384Z,4.88
2023-04-10T17:41:49.462Z,4.03
2023-04-10T17:44:34.914Z,3.67
2023-04-10T17:47:20.449Z,3.75
2023-04-10T17:50:06.229Z,3.92
2023-04-10T17:52:51.610Z,3.95
2023-04-10T17:55:40.127Z,4.10
2023-04-10T17:58:25.577Z,4.10
2023-04-10T18:01:11.583Z,3.65
2023-04-10T18:04:02.773Z,4.25
2023-04-10T18:06:47.959Z,4.10
2023-04-10T18:09:33.511Z,4.28
2023-04-10T18:12:18.872Z,3.38
2023-04-10T18:15:04.654Z,4.10
2023-04-10T18:17:49.793Z,3.83
2023-04-10T18:20:35.523Z,3.58
2023-04-10T18:23:20.825Z,3.80
2023-04-10T18:26:06.757Z,3.85
2023-04-10T18:28:52.154Z,3.65
2023-04-10T18:31:37.491Z,5.75
2023-04-10T18:34:23.029Z,12.75
2023-04-10T18:37:10.005Z,4.40
2023-04-10T18:39:58.728Z,4.00
2023-04-10T18:42:44.491Z,4.13
2023-04-10T18:45:29.688Z,4.40
2023-04-10T18:48:14.923Z,4.15
2023-04-10T18:51:00.438Z,3.85
2023-04-10T18:53:46.412Z,3.95
2023-04-10T18:56:32.510Z,3.90
2023-04-10T18:59:17.768Z,3.55
2023-04-10T19:02:03.462Z,4.00
2023-04-10T19:04:49.015Z,3.70
2023-04-10T19:07:34.912Z,4.43
2023-04-10T19:10:20.467Z,4.18
2023-04-10T19:13:05.987Z,3.67
2023-04-10T19:15:51.514Z,3.85
2023-04-10T19:18:36.816Z,4.50
2023-04-10T19:21:22.570Z,3.50
2023-04-10T19:24:08.404Z,4.43
2023-04-10T19:26:56.215Z,3.47
2023-04-10T19:29:42.004Z,3.08
2023-04-10T19:32:27.618Z,3.58
2023-04-10T19:35:13.307Z,4.15
2023-04-10T19:37:59.078Z,3.13
2023-04-10T19:40:44.703Z,3.28
2023-04-10T19:43:31.053Z,3.28
2023-04-10T19:46:17.669Z,3.50
2023-04-10T19:49:03.595Z,3.38
2023-04-10T19:51:49.072Z,3.20
2023-04-10T19:54:34.348Z,3.30
2023-04-10T19:57:20.977Z,3.58
2023-04-10T20:00:07.461Z,3.35
2023-04-10T20:02:53.161Z,3.25
2023-04-10T20:05:39.027Z,3.35
2023-04-10T20:08:24.386Z,3.70
2023-04-10T20:11:09.942Z,3.70
2023-04-10T20:13:55.502Z,3.50
2023-04-10T20:16:41.205Z,3.90
2023-04-10T20:19:26.680Z,3.63
2023-04-10T20:22:12.040Z,3.60
2023-04-10T20:24:57.597Z,3.47
2023-04-10T20:27:43.023Z,3.35
2023-04-10T20:30:28.521Z,3.55
2023-04-10T20:33:13.911Z,4.07
2023-04-10T20:35:59.292Z,3.30
2023-04-10T20:38:44.769Z,3.05
2023-04-10T20:41:30.100Z,11.13
2023-04-10T20:44:15.729Z,3.75
2023-04-10T20:47:01.349Z,3.40
2023-04-10T20:49:46.787Z,3.70
2023-04-10T20:52:32.470Z,3.80
2023-04-10T20:55:18.443Z,3.67
2023-04-10T20:58:03.965Z,4.35
2023-04-10T21:00:53.345Z,4.03
2023-04-10T21:03:38.790Z,3.28
2023-04-10T21:06:24.842Z,3.92
2023-04-10T21:09:10.446Z,4.10
2023-04-10T21:11:55.605Z,3.70
2023-04-10T21:14:41.051Z,3.72
2023-04-10T21:17:31.317Z,3.72
2023-04-10T21:20:17.024Z,3.35
2023-04-10T21:23:02.877Z,3.65
2023-04-10T21:25:54.839Z,3.65
2023-04-10T21:28:40.217Z,3.58
2023-04-10T21:31:25.695Z,3.88
2023-04-10T21:34:10.903Z,4.20
2023-04-10T21:36:56.196Z,3.90
2023-04-10T21:39:41.685Z,3.72
2023-04-10T21:42:27.087Z,3.70
2023-04-10T21:45:13.174Z,3.70
2023-04-10T21:48:00.295Z,3.88
2023-04-10T21:50:45.610Z,4.05
2023-04-10T21:53:30.999Z,3.95
2023-04-10T21:56:16.349Z,4.22
2023-04-10T21:59:02.094Z,4.63
2023-04-10T22:01:47.488Z,3.80
2023-04-10T22:04:34.560Z,3.67
2023-04-10T22:07:20.231Z,3.97
2023-04-10T22:10:06.425Z,3.90
2023-04-10T22:12:51.503Z,4.57
2023-04-10T22:15:36.898Z,4.28
2023-04-10T22:18:22.148Z,3.58
2023-04-10T22:21:07.794Z,4.10
2023-04-10T22:23:53.303Z,4.35
2023-04-10T22:26:38.849Z,4.30
2023-04-10T22:29:25.320Z,4.78
2023-04-10T22:32:10.849Z,4.60
2023-04-10T22:34:58.016Z,4.18
2023-04-10T22:37:44.305Z,3.80
2023-04-10T22:40:31.311Z,3.95
2023-04-10T22:43:16.605Z,4.65
2023-04-10T22:46:02.223Z,5.65
2023-04-10T22:48:47.395Z,4.90
2023-04-10T22:51:32.830Z,4.72
2023-04-10T22:54:18.274Z,4.10
2023-04-10T22:57:03.873Z,4.00
2023-04-10T22:59:49.582Z,4.88
2023-04-10T23:02:34.888Z,4.38
2023-04-10T23:05:20.367Z,4.55
2023-04-10T23:08:05.564Z,4.55
2023-04-10T23:10:55.154Z,4.07
2023-04-10T23:13:42.691Z,4.05
2023-04-10T23:16:28.253Z,4.40
2023-04-10T23:19:13.663Z,3.47
2023-04-10T23:21:58.942Z,4.30
2023-04-10T23:24:46.226Z,3.97
2023-04-10T23:27:31.688Z,4.28
2023-04-10T23:30:17.154Z,4.13
2023-04-10T23:33:02.652Z,4.20
2023-04-10T23:35:48.041Z,4.25
2023-04-10T23:38:33.268Z,4.05
2023-04-10T23:41:18.674Z,4.97
2023-04-10T23:44:04.094Z,4.20
2023-04-10T23:46:52.796Z,4.18
2023-04-10T23:49:38.186Z,4.28
2023-04-10T23:52:23.512Z,4.47
2023-04-10T23:55:09.037Z,3.85
2023-04-10T23:57:54.396Z,4.15
